createdAt,value
2019-05-19T00:00:12.521Z,14.40
2019-05-19T00:05:03.434Z,14.00
2019-05-19T00:09:55.089Z,13.40
2019-05-19T00:14:45.993Z,13.40
2019-05-19T00:19:36.884Z,13.30
2019-05-19T00:24:28.527Z,14.10
2019-05-19T00:29:20.210Z,13.70
2019-05-19T00:34:11.100Z,13.70
2019-05-19T00:39:02.017Z,13.40
2019-05-19T00:43:52.927Z,13.10
2019-05-19T00:48:43.832Z,12.80
2019-05-19T00:53:35.475Z,13.70
2019-05-19T00:58:27.106Z,13.50
2019-05-19T01:03:18.751Z,13.20
2019-05-19T01:08:10.386Z,12.80
2019-05-19T01:13:01.283Z,12.80
2019-05-19T01:17:52.171Z,12.50
2019-05-19T01:22:43.082Z,12.40
2019-05-19T01:27:33.971Z,13.10
2019-05-19T01:32:24.867Z,13.30
2019-05-19T01:37:16.512Z,12.60
2019-05-19T01:42:07.420Z,12.60
2019-05-19T01:46:59.059Z,12.10
2019-05-19T01:51:50.692Z,12.20
2019-05-19T01:56:42.339Z,12.90
2019-05-19T02:01:33.235Z,12.90
2019-05-19T02:06:24.876Z,12.50
2019-05-19T02:11:16.523Z,12.10
2019-05-19T02:16:08.164Z,11.90
2019-05-19T02:20:59.054Z,11.80
2019-05-19T02:25:50.729Z,12.00
2019-05-19T02:30:41.620Z,12.00
2019-05-19T02:35:33.248Z,12.40
2019-05-19T02:40:24.900Z,12.00
2019-05-19T02:45:16.544Z,11.70
2019-05-19T02:50:07.443Z,11.70
2019-05-19T02:54:59.088Z,11.20
2019-05-19T02:59:50.729Z,11.80
2019-05-19T03:04:41.639Z,11.80
2019-05-19T03:09:33.273Z,12.00
2019-05-19T03:14:24.911Z,11.70
2019-05-19T03:19:16.542Z,11.30
2019-05-19T03:24:08.173Z,11.10
2019-05-19T03:28:59.815Z,10.90
2019-05-19T03:33:51.443Z,11.70
2019-05-19T03:38:43.085Z,12.10
2019-05-19T03:43:34.745Z,11.80
2019-05-19T03:48:25.639Z,11.80
2019-05-19T03:53:17.275Z,11.10
2019-05-19T03:58:08.910Z,10.90
2019-05-19T04:03:00.556Z,10.80
2019-05-19T04:07:51.450Z,10.80
2019-05-19T04:12:42.345Z,11.40
2019-05-19T04:17:33.980Z,11.90
2019-05-19T04:22:24.876Z,11.90
2019-05-19T04:27:15.784Z,11.50
2019-05-19T04:32:06.686Z,11.30
2019-05-19T04:36:57.602Z,11.10
2019-05-19T04:41:48.499Z,11.00
2019-05-19T04:46:39.399Z,11.70
2019-05-19T04:51:30.304Z,12.50
2019-05-19T04:56:21.214Z,12.40
2019-05-19T05:01:12.860Z,11.90
2019-05-19T05:06:03.764Z,11.80
2019-05-19T05:10:54.664Z,11.70
2019-05-19T05:15:45.550Z,11.80
2019-05-19T05:20:37.202Z,13.30
2019-05-19T05:25:28.095Z,13.20
2019-05-19T05:30:18.991Z,13.20
2019-05-19T05:35:09.899Z,13.00
2019-05-19T05:40:00.796Z,13.00
2019-05-19T05:44:51.834Z,13.00
2019-05-19T05:49:42.752Z,13.10
2019-05-19T05:54:33.639Z,13.90
2019-05-19T05:59:24.530Z,14.60
2019-05-19T06:04:15.426Z,14.60
2019-05-19T06:09:06.319Z,14.50
2019-05-19T06:13:57.211Z,14.40
2019-05-19T06:18:48.102Z,14.40
2019-05-19T06:23:39.003Z,14.70
2019-05-19T06:28:29.903Z,15.60
2019-05-19T06:33:20.803Z,15.90
2019-05-19T06:38:11.691Z,15.80
2019-05-19T06:43:03.336Z,15.70
2019-05-19T06:47:54.239Z,15.60
2019-05-19T06:52:45.877Z,16.40
2019-05-19T06:57:37.519Z,17.10
2019-05-19T07:02:29.187Z,17.00
2019-05-19T07:07:20.087Z,17.00
2019-05-19T07:12:10.998Z,17.00
2019-05-19T07:17:01.909Z,17.00
2019-05-19T07:21:53.570Z,17.20
2019-05-19T07:26:44.551Z,17.20
2019-05-19T07:31:36.183Z,18.80
2019-05-19T07:36:27.067Z,18.80
2019-05-19T07:41:17.963Z,18.90
2019-05-19T07:46:08.857Z,18.80
2019-05-19T07:50:59.842Z,18.90
2019-05-19T07:55:50.752Z,19.00
2019-05-19T08:00:41.655Z,19.70
2019-05-19T08:05:32.579Z,20.50
2019-05-19T08:10:23.469Z,20.50
2019-05-19T08:15:14.371Z,20.40
2019-05-19T08:20:05.258Z,20.40
2019-05-19T08:24:56.163Z,20.40
2019-05-19T08:29:47.068Z,21.00
2019-05-19T08:34:37.962Z,21.60
2019-05-19T08:39:28.866Z,21.60
2019-05-19T08:44:19.766Z,21.50
2019-05-19T08:49:11.399Z,21.30
2019-05-19T08:54:14.493Z,21.80
2019-05-19T08:58:54.839Z,22.40
2019-05-19T09:03:45.742Z,22.30
2019-05-19T09:08:36.643Z,22.40
2019-05-19T09:13:27.555Z,22.20
2019-05-19T09:18:18.506Z,22.00
2019-05-19T09:23:09.395Z,21.90
2019-05-19T09:28:00.290Z,22.40
2019-05-19T09:32:51.923Z,23.00
2019-05-19T09:37:43.583Z,22.70
2019-05-19T09:42:34.474Z,22.70
2019-05-19T09:47:26.121Z,22.60
2019-05-19T09:52:17.751Z,23.10
2019-05-19T09:57:09.392Z,23.70
2019-05-19T10:02:01.028Z,23.70
2019-05-19T10:06:51.971Z,23.70
2019-05-19T10:12:07.235Z,23.50
2019-05-19T10:16:58.875Z,23.20
2019-05-19T10:21:50.507Z,23.70
2019-05-19T10:26:42.149Z,24.30
2019-05-19T10:31:33.124Z,24.30
2019-05-19T10:36:24.027Z,24.30
2019-05-19T10:41:14.935Z,24.00
2019-05-19T10:46:05.924Z,23.80
2019-05-19T10:50:56.831Z,23.80
2019-05-19T10:55:48.472Z,25.10
2019-05-19T11:00:40.126Z,25.20
2019-05-19T11:05:31.024Z,25.10
2019-05-19T11:10:22.667Z,24.90
2019-05-19T11:15:13.571Z,25.00
2019-05-19T11:20:05.265Z,25.60
2019-05-19T11:24:56.143Z,25.50
2019-05-19T11:29:47.035Z,26.30
2019-05-19T11:34:37.928Z,26.40
2019-05-19T11:39:28.835Z,26.20
2019-05-19T11:44:19.823Z,26.10
2019-05-19T11:49:10.729Z,26.00
2019-05-19T11:54:02.379Z,27.20
2019-05-19T11:58:53.279Z,27.20
2019-05-19T12:03:44.918Z,27.30
2019-05-19T12:08:36.550Z,27.40
2019-05-19T12:13:28.187Z,27.70
2019-05-19T12:18:19.831Z,28.40
2019-05-19T12:23:10.718Z,28.40
2019-05-19T12:28:01.617Z,29.00
2019-05-19T12:32:52.546Z,29.30
2019-05-19T12:37:43.438Z,29.40
2019-05-19T12:42:34.337Z,29.60
2019-05-19T12:47:25.236Z,29.80
2019-05-19T12:52:16.143Z,30.20
2019-05-19T12:57:07.789Z,30.50
2019-05-19T13:01:58.691Z,30.50
2019-05-19T13:06:50.327Z,30.30
2019-05-19T13:11:41.992Z,30.30
2019-05-19T13:16:32.897Z,30.30
2019-05-19T13:21:24.581Z,30.80
2019-05-19T13:26:15.498Z,30.70
2019-05-19T13:31:06.403Z,30.50
2019-05-19T13:35:57.304Z,30.20
2019-05-19T13:40:48.203Z,29.90
2019-05-19T13:45:39.834Z,30.00
2019-05-19T13:50:31.478Z,30.10
2019-05-19T13:55:22.384Z,30.10
2019-05-19T14:00:14.045Z,29.40
2019-05-19T14:05:04.937Z,29.40
2019-05-19T14:09:55.859Z,29.00
2019-05-19T14:14:47.502Z,29.50
2019-05-19T14:19:39.146Z,29.70
2019-05-19T14:24:30.050Z,29.60
2019-05-19T14:29:21.736Z,28.80
2019-05-19T14:34:12.649Z,28.80
2019-05-19T14:39:05.943Z,28.50
2019-05-19T14:43:54.508Z,28.60
2019-05-19T14:48:45.415Z,28.90
2019-05-19T14:53:36.330Z,29.00
2019-05-19T14:58:27.230Z,28.60
2019-05-19T15:03:18.146Z,28.10
2019-05-19T15:08:09.089Z,27.60
2019-05-19T15:13:00.016Z,27.60
2019-05-19T15:17:50.923Z,27.70
2019-05-19T15:22:41.849Z,27.60
2019-05-19T15:27:32.745Z,27.10
2019-05-19T15:32:23.644Z,26.60
2019-05-19T15:37:14.533Z,26.40
2019-05-19T15:42:06.175Z,27.20
2019-05-19T15:46:57.808Z,27.40
2019-05-19T15:52:02.141Z,27.10
2019-05-19T15:56:40.383Z,27.10
2019-05-19T16:01:31.286Z,26.70
2019-05-19T16:06:22.927Z,26.50
2019-05-19T16:11:14.574Z,26.90
2019-05-19T16:16:05.489Z,26.90
2019-05-19T16:20:56.383Z,26.80
2019-05-19T16:25:47.284Z,26.30
2019-05-19T16:30:38.188Z,25.80
2019-05-19T16:35:29.082Z,25.40
2019-05-19T16:40:19.981Z,25.60
2019-05-19T16:45:10.949Z,25.90
2019-05-19T16:50:01.855Z,26.00
2019-05-19T16:54:58.863Z,25.50
2019-05-19T16:59:50.507Z,24.80
2019-05-19T17:04:42.153Z,25.00
2019-05-19T17:09:33.070Z,25.00
2019-05-19T17:14:24.045Z,25.60
2019-05-19T17:19:14.964Z,25.80
2019-05-19T17:24:05.874Z,25.40
2019-05-19T17:29:00.764Z,25.00
2019-05-19T17:33:47.708Z,24.60
2019-05-19T17:38:38.610Z,24.80
2019-05-19T17:43:29.514Z,25.40
2019-05-19T17:48:26.379Z,25.60
2019-05-19T17:53:11.331Z,25.30
2019-05-19T17:58:02.968Z,24.40
2019-05-19T18:02:54.659Z,24.30
2019-05-19T18:07:45.572Z,24.30
2019-05-19T18:12:36.470Z,24.90
2019-05-19T18:17:27.374Z,25.20
2019-05-19T18:22:18.339Z,24.80
2019-05-19T18:27:09.260Z,24.30
2019-05-19T18:32:00.168Z,23.80
2019-05-19T18:36:51.063Z,23.80
2019-05-19T18:41:41.964Z,24.20
2019-05-19T18:46:32.889Z,24.60
2019-05-19T18:51:23.796Z,24.20
2019-05-19T18:56:14.703Z,23.70
2019-05-19T19:01:06.352Z,23.10
2019-05-19T19:05:57.256Z,23.00
2019-05-19T19:10:48.910Z,23.90
2019-05-19T19:15:39.843Z,23.90
2019-05-19T19:20:30.748Z,23.60
2019-05-19T19:25:21.642Z,23.10
2019-05-19T19:30:13.288Z,22.30
2019-05-19T19:35:05.742Z,22.70
2019-05-19T19:39:57.379Z,23.20
2019-05-19T19:44:49.027Z,23.10
2019-05-19T19:49:39.951Z,23.10
2019-05-19T19:54:30.860Z,22.60
2019-05-19T19:59:21.759Z,22.10
2019-05-19T20:04:13.450Z,21.90
2019-05-19T20:09:04.343Z,21.90
2019-05-19T20:13:55.232Z,22.50
2019-05-19T20:18:46.873Z,22.00
2019-05-19T20:23:38.532Z,21.50
2019-05-19T20:28:29.459Z,21.50
2019-05-19T20:33:20.356Z,21.10
2019-05-19T20:38:11.268Z,21.20
2019-05-19T20:43:02.932Z,22.00
2019-05-19T20:47:53.831Z,22.00
2019-05-19T20:52:44.727Z,21.50
2019-05-19T20:57:36.380Z,20.70
2019-05-19T21:02:28.044Z,20.70
2019-05-19T21:07:18.963Z,20.70
2019-05-19T21:12:09.871Z,21.40
2019-05-19T21:17:00.771Z,21.70
2019-05-19T21:21:51.668Z,21.30
2019-05-19T21:26:42.579Z,20.90
2019-05-19T21:31:33.479Z,20.50
2019-05-19T21:36:24.403Z,20.20
2019-05-19T21:41:15.281Z,20.70
2019-05-19T21:46:06.673Z,21.00
2019-05-19T21:51:04.155Z,20.70
2019-05-19T21:55:55.790Z,19.70
2019-05-19T22:00:47.430Z,19.40
2019-05-19T22:05:52.599Z,19.70
2019-05-19T22:10:30.007Z,19.70
2019-05-19T22:15:20.911Z,20.40
2019-05-19T22:20:11.810Z,20.20
2019-05-19T22:25:04.289Z,19.30
2019-05-19T22:29:55.187Z,19.20
2019-05-19T22:34:46.835Z,19.00
2019-05-19T22:39:38.475Z,19.70
2019-05-19T22:44:29.367Z,19.70
2019-05-19T22:49:20.296Z,19.80
2019-05-19T22:54:11.952Z,18.80
2019-05-19T22:59:02.858Z,18.80
2019-05-19T23:03:54.502Z,18.30
2019-05-19T23:08:46.155Z,18.90
2019-05-19T23:13:37.066Z,18.90
2019-05-19T23:18:27.977Z,19.40
2019-05-19T23:23:18.879Z,19.00
2019-05-19T23:28:10.536Z,18.10
2019-05-19T23:33:01.433Z,18.10
2019-05-19T23:37:53.075Z,18.20
2019-05-19T23:42:44.731Z,18.80
2019-05-19T23:47:35.644Z,18.80
2019-05-19T23:52:26.551Z,18.70
2019-05-19T23:57:18.239Z,17.90
